createdAt,value
2018-11-27T00:00:34.578Z,57.90
2018-11-27T00:03:06.012Z,58.10
2018-11-27T00:05:35.872Z,58.30
2018-11-27T00:08:04.152Z,58.50
2018-11-27T00:10:34.658Z,58.30
2018-11-27T00:13:02.883Z,58.40
2018-11-27T00:15:31.037Z,58.50
2018-11-27T00:17:59.317Z,58.60
2018-11-27T00:20:27.500Z,58.40
2018-11-27T00:22:55.700Z,58.40
2018-11-27T00:25:23.899Z,58.70
2018-11-27T00:27:52.098Z,58.40
2018-11-27T00:30:20.912Z,58.60
2018-11-27T00:32:49.178Z,58.60
2018-11-27T00:35:18.504Z,58.60
2018-11-27T00:37:46.949Z,58.50
2018-11-27T00:40:20.552Z,58.40
2018-11-27T00:42:49.076Z,58.10
2018-11-27T00:45:18.990Z,58.30
2018-11-27T00:47:48.873Z,58.90
2018-11-27T00:50:20.703Z,59.00
2018-11-27T00:52:49.224Z,59.20
2018-11-27T00:55:18.856Z,58.90
2018-11-27T00:57:48.970Z,58.40
2018-11-27T01:00:18.674Z,58.30
2018-11-27T01:02:47.022Z,58.10
2018-11-27T01:05:17.118Z,57.70
2018-11-27T01:07:46.513Z,57.50
2018-11-27T01:10:23.179Z,57.30
2018-11-27T01:12:51.660Z,57.30
2018-11-27T01:15:19.883Z,57.80
2018-11-27T01:17:53.013Z,57.40
2018-11-27T01:20:21.984Z,57.40
2018-11-27T01:22:50.209Z,58.30
2018-11-27T01:25:18.344Z,60.30
2018-11-27T01:27:46.514Z,60.30
2018-11-27T01:30:17.370Z,60.80
2018-11-27T01:32:45.551Z,61.00
2018-11-27T01:35:16.149Z,61.40
2018-11-27T01:37:44.824Z,61.10
2018-11-27T01:40:21.227Z,60.70
2018-11-27T01:42:51.068Z,60.80
2018-11-27T01:45:20.138Z,60.90
2018-11-27T01:47:48.358Z,61.50
2018-11-27T01:50:17.370Z,61.20
2018-11-27T01:52:45.495Z,60.60
2018-11-27T01:55:16.067Z,61.10
2018-11-27T01:57:44.501Z,60.70
2018-11-27T02:00:22.646Z,60.80
2018-11-27T02:02:51.289Z,61.40
2018-11-27T02:05:19.864Z,61.50
2018-11-27T02:07:47.962Z,61.40
2018-11-27T02:10:16.190Z,61.70
2018-11-27T02:12:45.821Z,61.00
2018-11-27T02:15:19.704Z,61.20
2018-11-27T02:17:47.801Z,61.50
2018-11-27T02:20:15.992Z,61.20
2018-11-27T02:22:44.154Z,61.20
2018-11-27T02:25:16.115Z,60.80
2018-11-27T02:27:45.018Z,61.20
2018-11-27T02:30:17.681Z,60.90
2018-11-27T02:32:45.815Z,61.90
2018-11-27T02:35:17.375Z,62.60
2018-11-27T02:37:46.625Z,62.10
2018-11-27T02:40:15.815Z,61.80
2018-11-27T02:42:44.695Z,61.60
2018-11-27T02:45:15.324Z,61.80
2018-11-27T02:47:43.867Z,61.90
2018-11-27T02:50:13.647Z,62.40
2018-11-27T02:52:41.827Z,61.80
2018-11-27T02:55:18.323Z,61.70
2018-11-27T02:57:46.811Z,61.50
2018-11-27T03:00:17.378Z,61.50
2018-11-27T03:02:45.557Z,61.60
2018-11-27T03:05:23.957Z,61.10
2018-11-27T03:07:52.059Z,60.80
2018-11-27T03:10:20.221Z,61.40
2018-11-27T03:12:48.315Z,61.40
2018-11-27T03:15:17.737Z,61.40
2018-11-27T03:17:45.919Z,61.60
2018-11-27T03:20:15.488Z,61.30
2018-11-27T03:22:43.733Z,60.50
2018-11-27T03:25:16.522Z,60.90
2018-11-27T03:27:46.140Z,61.20
2018-11-27T03:30:18.535Z,61.50
2018-11-27T03:32:46.592Z,61.20
2018-11-27T03:35:16.926Z,61.00
2018-11-27T03:37:47.256Z,61.60
2018-11-27T03:40:22.181Z,62.20
2018-11-27T03:42:50.377Z,61.80
2018-11-27T03:45:19.110Z,61.90
2018-11-27T03:47:47.528Z,62.30
2018-11-27T03:50:23.311Z,62.40
2018-11-27T03:52:51.430Z,62.80
2018-11-27T03:55:19.574Z,62.70
2018-11-27T03:57:47.702Z,61.80
2018-11-27T04:00:20.218Z,62.20
2018-11-27T04:03:07.254Z,61.60
2018-11-27T04:05:35.589Z,62.00
2018-11-27T04:08:04.526Z,62.90
2018-11-27T04:10:32.637Z,63.30
2018-11-27T04:13:00.750Z,63.10
2018-11-27T04:15:28.852Z,62.30
2018-11-27T04:17:57.016Z,62.30
2018-11-27T04:20:25.111Z,62.70
2018-11-27T04:22:53.251Z,62.00
2018-11-27T04:25:21.448Z,61.80
2018-11-27T04:27:49.620Z,62.00
2018-11-27T04:30:19.238Z,62.20
2018-11-27T04:32:47.327Z,62.50
2018-11-27T04:35:18.734Z,62.60
2018-11-27T04:37:47.101Z,63.10
2018-11-27T04:40:16.887Z,63.30
2018-11-27T04:42:44.972Z,63.00
2018-11-27T04:45:23.296Z,62.80
2018-11-27T04:47:51.426Z,63.20
2018-11-27T04:50:19.883Z,62.90
2018-11-27T04:52:48.050Z,63.30
2018-11-27T04:55:18.230Z,63.50
2018-11-27T04:57:47.528Z,63.70
2018-11-27T05:00:17.936Z,63.70
2018-11-27T05:02:46.226Z,63.60
2018-11-27T05:05:14.402Z,63.90
2018-11-27T05:07:42.491Z,63.70
2018-11-27T05:10:15.068Z,63.80
2018-11-27T05:12:43.454Z,64.10
2018-11-27T05:15:21.048Z,64.00
2018-11-27T05:17:50.928Z,64.10
2018-11-27T05:20:19.844Z,64.30
2018-11-27T05:22:47.909Z,62.10
2018-11-27T05:25:17.624Z,60.90
2018-11-27T05:27:47.471Z,58.90
2018-11-27T05:30:21.180Z,57.80
2018-11-27T05:32:49.423Z,57.00
2018-11-27T05:35:22.329Z,56.40
2018-11-27T05:37:50.714Z,56.20
2018-11-27T05:40:22.450Z,56.60
2018-11-27T05:42:53.475Z,55.90
2018-11-27T05:45:23.307Z,55.70
2018-11-27T05:47:51.439Z,55.90
2018-11-27T05:50:19.678Z,56.10
2018-11-27T05:52:47.885Z,56.00
2018-11-27T05:55:17.177Z,56.10
2018-11-27T05:57:48.212Z,55.70
2018-11-27T06:00:19.141Z,55.80
2018-11-27T06:02:49.278Z,56.00
2018-11-27T06:05:20.057Z,56.20
2018-11-27T06:07:48.170Z,56.20
2018-11-27T06:10:17.951Z,55.80
2018-11-27T06:12:46.147Z,55.80
2018-11-27T06:15:24.224Z,55.70
2018-11-27T06:17:55.493Z,56.00
2018-11-27T06:20:23.892Z,55.80
2018-11-27T06:22:52.972Z,55.50
2018-11-27T06:25:23.745Z,57.50
2018-11-27T06:28:01.530Z,58.80
2018-11-27T06:30:31.158Z,59.60
2018-11-27T06:32:59.317Z,60.40
2018-11-27T06:35:38.881Z,60.60
2018-11-27T06:38:08.782Z,60.60
2018-11-27T06:40:37.071Z,61.80
2018-11-27T06:43:08.448Z,61.90
2018-11-27T06:45:36.937Z,62.30
2018-11-27T06:48:05.264Z,63.70
2018-11-27T06:50:33.646Z,65.30
2018-11-27T06:53:01.726Z,65.80
2018-11-27T06:55:30.460Z,66.00
2018-11-27T06:57:58.703Z,66.00
2018-11-27T07:00:28.268Z,66.50
2018-11-27T07:02:57.790Z,66.60
2018-11-27T07:05:26.102Z,66.90
2018-11-27T07:07:54.296Z,66.80
2018-11-27T07:10:29.303Z,66.30
2018-11-27T07:13:03.297Z,66.30
2018-11-27T07:15:31.767Z,66.50
2018-11-27T07:18:00.037Z,66.40
2018-11-27T07:20:28.231Z,66.00
2018-11-27T07:22:56.478Z,65.90
2018-11-27T07:25:31.289Z,65.50
2018-11-27T07:27:59.542Z,65.30
2018-11-27T07:30:27.691Z,65.20
2018-11-27T07:32:55.737Z,64.90
2018-11-27T07:35:23.945Z,64.90
2018-11-27T07:37:52.231Z,64.90
2018-11-27T07:40:23.336Z,64.90
2018-11-27T07:42:53.444Z,64.50
2018-11-27T07:45:23.067Z,64.80
2018-11-27T07:47:51.336Z,64.90
2018-11-27T07:50:19.624Z,64.70
2018-11-27T07:52:47.772Z,64.10
2018-11-27T07:55:19.199Z,64.20
2018-11-27T07:57:47.699Z,64.10
2018-11-27T08:00:18.110Z,63.50
2018-11-27T08:02:50.280Z,63.50
2018-11-27T08:05:24.837Z,63.30
2018-11-27T08:07:54.645Z,63.40
2018-11-27T08:10:27.600Z,63.20
2018-11-27T08:12:55.804Z,62.70
2018-11-27T08:15:26.015Z,62.70
2018-11-27T08:17:54.278Z,63.20
2018-11-27T08:20:25.449Z,63.20
2018-11-27T08:22:53.620Z,62.30
2018-11-27T08:25:21.738Z,62.00
2018-11-27T08:27:49.909Z,61.80
2018-11-27T08:30:20.933Z,62.20
2018-11-27T08:32:49.368Z,62.00
2018-11-27T08:35:22.044Z,62.00
2018-11-27T08:37:51.974Z,61.80
2018-11-27T08:40:21.886Z,61.40
2018-11-27T08:42:50.029Z,61.50
2018-11-27T08:45:19.924Z,61.80
2018-11-27T08:47:49.234Z,61.40
2018-11-27T08:50:19.190Z,61.90
2018-11-27T08:52:49.309Z,61.20
2018-11-27T08:55:20.815Z,60.80
2018-11-27T08:57:49.099Z,60.80
2018-11-27T09:00:21.623Z,60.50
2018-11-27T09:02:49.780Z,60.30
2018-11-27T09:05:17.983Z,59.90
2018-11-27T09:07:46.648Z,60.10
2018-11-27T09:10:21.695Z,60.40
2018-11-27T09:12:49.854Z,60.40
2018-11-27T09:15:19.775Z,60.50
2018-11-27T09:18:22.204Z,60.60
2018-11-27T09:20:50.400Z,60.20
2018-11-27T09:23:18.688Z,59.80
2018-11-27T09:25:46.847Z,59.80
2018-11-27T09:28:15.006Z,60.20
2018-11-27T09:30:44.346Z,60.40
2018-11-27T09:33:12.626Z,60.80
2018-11-27T09:35:40.745Z,60.50
2018-11-27T09:38:09.084Z,60.40
2018-11-27T09:40:37.286Z,60.80
2018-11-27T09:43:06.423Z,60.60
2018-11-27T09:45:35.563Z,61.00
2018-11-27T09:48:03.956Z,60.90
2018-11-27T09:50:32.256Z,60.70
2018-11-27T09:53:00.462Z,60.40
2018-11-27T09:55:28.706Z,60.70
2018-11-27T09:57:59.286Z,61.00
2018-11-27T10:00:28.318Z,61.20
2018-11-27T10:03:04.816Z,61.20
2018-11-27T10:05:34.397Z,60.60
2018-11-27T10:08:02.930Z,60.90
2018-11-27T10:10:31.083Z,60.70
2018-11-27T10:12:59.246Z,60.60
2018-11-27T10:15:28.568Z,60.30
2018-11-27T10:18:00.842Z,59.80
2018-11-27T10:20:37.576Z,60.40
2018-11-27T10:23:12.763Z,60.40
2018-11-27T10:25:40.864Z,59.70
2018-11-27T10:28:09.539Z,59.90
2018-11-27T10:30:37.804Z,59.30
2018-11-27T10:33:08.144Z,59.50
2018-11-27T10:35:41.632Z,60.10
2018-11-27T10:38:09.777Z,59.80
2018-11-27T10:40:38.159Z,59.70
2018-11-27T10:43:06.541Z,60.10
2018-11-27T10:45:34.980Z,60.10
2018-11-27T10:48:03.412Z,59.80
2018-11-27T10:50:31.652Z,59.50
2018-11-27T10:52:59.958Z,59.30
2018-11-27T10:55:28.178Z,58.90
2018-11-27T10:57:56.435Z,59.00
2018-11-27T11:00:32.135Z,59.00
2018-11-27T11:03:06.957Z,58.70
2018-11-27T11:05:37.050Z,58.20
2018-11-27T11:08:05.406Z,58.40
2018-11-27T11:10:33.626Z,58.00
2018-11-27T11:13:01.847Z,58.60
2018-11-27T11:15:30.062Z,59.00
2018-11-27T11:17:58.272Z,58.60
2018-11-27T11:20:26.561Z,58.20
2018-11-27T11:22:54.936Z,57.80
2018-11-27T11:25:24.410Z,58.00
2018-11-27T11:27:54.766Z,57.70
2018-11-27T11:30:23.227Z,57.70
2018-11-27T11:32:51.528Z,57.60
2018-11-27T11:35:19.687Z,58.40
2018-11-27T11:37:48.535Z,57.40
2018-11-27T11:40:20.352Z,57.10
2018-11-27T11:42:50.301Z,57.70
2018-11-27T11:45:18.557Z,57.30
2018-11-27T11:47:46.879Z,57.70
2018-11-27T11:50:22.566Z,57.70
2018-11-27T11:52:55.784Z,58.00
2018-11-27T11:55:24.045Z,57.20
2018-11-27T11:57:52.199Z,57.20
2018-11-27T12:00:24.328Z,57.60
2018-11-27T12:02:52.619Z,57.40
2018-11-27T12:05:24.996Z,58.20
2018-11-27T12:07:49.176Z,58.30
2018-11-27T12:10:17.384Z,58.70
2018-11-27T12:12:47.855Z,58.40
2018-11-27T12:15:18.191Z,59.10
2018-11-27T12:17:47.367Z,59.00
2018-11-27T12:20:16.931Z,58.10
2018-11-27T12:22:50.467Z,58.50
2018-11-27T12:25:23.984Z,58.50
2018-11-27T12:27:47.797Z,58.40
2018-11-27T12:30:21.125Z,58.20
2018-11-27T12:32:49.542Z,58.50
2018-11-27T12:35:18.608Z,58.50
2018-11-27T12:37:46.921Z,58.90
2018-11-27T12:40:26.491Z,59.00
2018-11-27T12:42:55.404Z,59.30
2018-11-27T12:45:28.221Z,59.20
2018-11-27T12:47:58.139Z,59.10
2018-11-27T12:50:35.131Z,58.80
2018-11-27T12:53:03.394Z,58.70
2018-11-27T12:55:31.576Z,58.70
2018-11-27T12:58:00.089Z,58.90
2018-11-27T13:00:28.212Z,58.40
2018-11-27T13:02:56.593Z,59.30
2018-11-27T13:05:27.004Z,59.80
2018-11-27T13:08:00.166Z,59.60
2018-11-27T13:10:28.687Z,60.10
2018-11-27T13:12:56.964Z,61.00
2018-11-27T13:15:25.135Z,60.70
2018-11-27T13:17:53.812Z,61.40
2018-11-27T13:20:22.099Z,61.10
2018-11-27T13:22:51.682Z,60.50
2018-11-27T13:25:21.954Z,60.70
2018-11-27T13:27:51.855Z,60.40
2018-11-27T13:30:53.685Z,59.80
2018-11-27T13:33:28.649Z,59.50
2018-11-27T13:35:57.453Z,58.70
2018-11-27T13:38:26.272Z,59.30
2018-11-27T13:40:53.997Z,58.80
2018-11-27T13:43:27.262Z,58.50
2018-11-27T13:45:57.415Z,58.10
2018-11-27T13:48:25.661Z,58.20
2018-11-27T13:50:53.879Z,58.40
2018-11-27T13:53:22.162Z,58.30
2018-11-27T13:55:50.382Z,58.50
2018-11-27T13:58:18.676Z,58.20
2018-11-27T14:00:47.393Z,59.10
2018-11-27T14:03:15.547Z,59.00
2018-11-27T14:05:43.909Z,59.40
2018-11-27T14:08:12.323Z,59.90
2018-11-27T14:10:40.781Z,59.90
2018-11-27T14:13:09.622Z,60.80
2018-11-27T14:15:39.060Z,61.20
2018-11-27T14:18:08.008Z,61.40
2018-11-27T14:20:36.255Z,62.60
2018-11-27T14:23:05.553Z,63.70
2018-11-27T14:25:33.866Z,64.50
2018-11-27T14:28:02.233Z,64.70
2018-11-27T14:30:30.485Z,64.50
2018-11-27T14:32:58.837Z,64.60
2018-11-27T14:35:27.108Z,64.20
2018-11-27T14:37:56.008Z,64.20
2018-11-27T14:40:27.276Z,64.50
2018-11-27T14:42:55.617Z,64.20
2018-11-27T14:45:25.047Z,64.00
2018-11-27T14:47:56.060Z,63.80
2018-11-27T14:50:25.261Z,64.10
2018-11-27T14:52:53.537Z,64.60
2018-11-27T14:55:27.516Z,65.00
2018-11-27T14:57:55.719Z,65.40
2018-11-27T15:00:24.994Z,65.30
2018-11-27T15:02:53.423Z,65.60
2018-11-27T15:05:38.876Z,65.40
2018-11-27T15:08:10.214Z,65.30
2018-11-27T15:10:38.385Z,65.90
2018-11-27T15:13:07.884Z,66.10
2018-11-27T15:15:36.192Z,66.30
2018-11-27T15:18:05.607Z,66.30
2018-11-27T15:20:33.845Z,65.70
2018-11-27T15:23:02.172Z,66.60
2018-11-27T15:25:30.396Z,67.10
2018-11-27T15:27:58.617Z,67.00
2018-11-27T15:30:28.997Z,67.20
2018-11-27T15:32:59.791Z,66.90
2018-11-27T15:35:28.048Z,68.70
2018-11-27T15:37:56.194Z,68.70
2018-11-27T15:40:27.078Z,67.80
2018-11-27T15:42:55.298Z,67.10
2018-11-27T15:45:29.235Z,65.80
2018-11-27T15:47:57.470Z,65.30
2018-11-27T15:50:25.659Z,65.30
2018-11-27T15:52:53.875Z,65.00
2018-11-27T15:55:25.195Z,64.70
2018-11-27T15:57:57.350Z,64.50
2018-11-27T16:00:25.595Z,63.80
2018-11-27T16:02:54.045Z,62.80
2018-11-27T16:05:22.531Z,62.80
2018-11-27T16:07:50.852Z,62.90
2018-11-27T16:10:19.477Z,63.60
2018-11-27T16:12:47.809Z,63.20
2018-11-27T16:15:17.959Z,63.20
2018-11-27T16:17:46.695Z,63.50
2018-11-27T16:20:16.651Z,63.80
2018-11-27T16:22:47.508Z,63.40
2018-11-27T16:25:19.421Z,62.70
2018-11-27T16:27:47.661Z,63.50
2018-11-27T16:30:24.162Z,63.80
2018-11-27T16:32:52.487Z,63.70
2018-11-27T16:35:20.792Z,64.50
2018-11-27T16:37:53.731Z,64.50
2018-11-27T16:40:32.184Z,64.50
2018-11-27T16:43:01.141Z,63.30
2018-11-27T16:45:29.435Z,63.20
2018-11-27T16:47:57.648Z,62.90
2018-11-27T16:50:25.941Z,62.90
2018-11-27T16:52:54.251Z,63.10
2018-11-27T16:55:23.597Z,63.20
2018-11-27T16:57:51.936Z,64.10
2018-11-27T17:00:24.722Z,63.30
2018-11-27T17:02:58.744Z,63.10
2018-11-27T17:05:29.212Z,63.50
2018-11-27T17:07:58.190Z,63.20
2018-11-27T17:10:26.576Z,62.50
2018-11-27T17:12:56.575Z,62.10
2018-11-27T17:15:26.631Z,62.10
2018-11-27T17:17:55.106Z,61.70
2018-11-27T17:20:28.422Z,61.60
2018-11-27T17:23:00.617Z,61.60
2018-11-27T17:25:29.009Z,62.00
2018-11-27T17:27:59.544Z,62.20
2018-11-27T17:30:36.087Z,62.00
2018-11-27T17:33:08.744Z,61.70
2018-11-27T17:35:37.110Z,61.90
2018-11-27T17:38:06.630Z,61.70
2018-11-27T17:40:34.103Z,61.80
2018-11-27T17:43:02.352Z,61.80
2018-11-27T17:45:31.607Z,61.30
2018-11-27T17:48:00.410Z,61.20
2018-11-27T17:50:28.631Z,61.60
2018-11-27T17:52:57.083Z,61.40
2018-11-27T17:55:25.789Z,61.20
2018-11-27T17:57:54.034Z,60.90
2018-11-27T18:00:24.915Z,60.70
2018-11-27T18:02:56.573Z,60.70
2018-11-27T18:05:24.924Z,60.60
2018-11-27T18:07:53.530Z,60.40
2018-11-27T18:10:21.835Z,60.70
2018-11-27T18:12:50.211Z,61.30
2018-11-27T18:15:20.235Z,61.10
2018-11-27T18:17:48.579Z,61.20
2018-11-27T18:20:17.068Z,60.90
2018-11-27T18:22:45.555Z,61.30
2018-11-27T18:25:15.567Z,61.10
2018-11-27T18:27:46.363Z,61.10
2018-11-27T18:30:17.839Z,61.00
2018-11-27T18:32:46.343Z,61.10
2018-11-27T18:35:17.662Z,60.80
2018-11-27T18:37:46.367Z,60.50
2018-11-27T18:40:15.642Z,60.60
2018-11-27T18:42:44.446Z,60.90
2018-11-27T18:45:21.306Z,60.50
2018-11-27T18:47:49.844Z,60.50
2018-11-27T18:50:18.344Z,61.30
2018-11-27T18:52:46.774Z,60.40
2018-11-27T18:55:16.285Z,60.50
2018-11-27T18:57:45.990Z,60.30
2018-11-27T19:00:24.016Z,60.10
2018-11-27T19:02:52.511Z,59.90
2018-11-27T19:05:21.242Z,60.30
2018-11-27T19:07:49.694Z,60.20
2018-11-27T19:10:22.748Z,59.80
2018-11-27T19:12:51.217Z,60.00
2018-11-27T19:15:31.783Z,59.90
2018-11-27T19:18:11.722Z,59.50
2018-11-27T19:20:40.134Z,59.30
2018-11-27T19:23:09.505Z,59.40
2018-11-27T19:25:38.015Z,58.90
2018-11-27T19:28:07.894Z,58.90
2018-11-27T19:30:37.133Z,58.90
2018-11-27T19:33:06.042Z,58.80
2018-11-27T19:35:34.532Z,58.50
2018-11-27T19:38:03.062Z,58.60
2018-11-27T19:40:31.414Z,59.00
2018-11-27T19:42:59.780Z,59.00
2018-11-27T19:45:28.253Z,59.20
2018-11-27T19:47:56.741Z,59.40
2018-11-27T19:50:25.355Z,59.60
2018-11-27T19:52:55.713Z,59.50
2018-11-27T19:55:24.503Z,59.70
2018-11-27T19:57:53.186Z,59.60
2018-11-27T20:00:24.579Z,59.60
2018-11-27T20:02:53.463Z,59.70
2018-11-27T20:05:25.485Z,60.30
2018-11-27T20:07:53.888Z,60.30
2018-11-27T20:10:22.238Z,61.10
2018-11-27T20:12:50.757Z,61.50
2018-11-27T20:15:24.292Z,61.50
2018-11-27T20:17:53.611Z,61.50
2018-11-27T20:20:24.536Z,61.80
2018-11-27T20:22:54.102Z,61.60
2018-11-27T20:25:23.236Z,61.30
2018-11-27T20:27:52.003Z,61.20
2018-11-27T20:30:23.149Z,61.10
2018-11-27T20:32:57.520Z,61.20
2018-11-27T20:35:26.544Z,61.30
2018-11-27T20:37:56.125Z,61.50
2018-11-27T20:40:24.561Z,61.30
2018-11-27T20:42:52.883Z,61.90
2018-11-27T20:45:23.219Z,62.20
2018-11-27T20:47:55.260Z,62.40
2018-11-27T20:50:23.810Z,62.00
2018-11-27T20:52:52.486Z,61.50
2018-11-27T20:55:21.563Z,61.40
2018-11-27T20:57:56.029Z,61.60
2018-11-27T21:00:29.864Z,61.50
2018-11-27T21:02:59.833Z,61.40
2018-11-27T21:05:28.377Z,61.90
2018-11-27T21:07:56.918Z,61.90
2018-11-27T21:10:25.862Z,61.60
2018-11-27T21:12:54.334Z,61.60
2018-11-27T21:15:23.635Z,62.10
2018-11-27T21:17:52.567Z,62.20
2018-11-27T21:20:21.087Z,62.10
2018-11-27T21:22:50.149Z,62.30
2018-11-27T21:25:21.307Z,62.20
2018-11-27T21:28:05.796Z,62.50
2018-11-27T21:30:34.253Z,63.00
2018-11-27T21:33:02.584Z,63.50
2018-11-27T21:35:31.141Z,63.30
2018-11-27T21:37:59.707Z,63.30
2018-11-27T21:40:28.090Z,63.30
2018-11-27T21:42:56.419Z,63.50
2018-11-27T21:45:26.853Z,64.20
2018-11-27T21:47:57.187Z,64.60
2018-11-27T21:50:31.256Z,64.70
2018-11-27T21:53:00.867Z,65.00
2018-11-27T21:55:29.242Z,64.60
2018-11-27T21:57:57.512Z,65.00
2018-11-27T22:00:26.446Z,65.00
2018-11-27T22:02:54.922Z,65.70
2018-11-27T22:05:23.206Z,66.60
2018-11-27T22:07:51.565Z,67.10
2018-11-27T22:10:21.564Z,67.50
2018-11-27T22:12:54.801Z,67.50
2018-11-27T22:15:26.354Z,68.30
2018-11-27T22:17:54.876Z,68.70
2018-11-27T22:20:30.092Z,69.30
2018-11-27T22:22:58.301Z,69.80
2018-11-27T22:25:26.630Z,69.80
2018-11-27T22:27:54.991Z,70.10
2018-11-27T22:30:23.326Z,70.60
2018-11-27T22:32:53.080Z,71.20
2018-11-27T22:35:21.635Z,71.00
2018-11-27T22:37:50.015Z,71.20
2018-11-27T22:40:21.103Z,71.60
2018-11-27T22:42:50.821Z,72.10
2018-11-27T22:45:25.144Z,72.10
2018-11-27T22:47:53.557Z,72.50
2018-11-27T22:50:21.932Z,73.00
2018-11-27T22:52:50.225Z,73.10
2018-11-27T22:55:18.728Z,73.20
2018-11-27T22:57:47.300Z,72.50
2018-11-27T23:00:51.862Z,72.20
2018-11-27T23:03:20.700Z,72.30
2018-11-27T23:05:49.123Z,72.60
2018-11-27T23:08:17.694Z,74.20
2018-11-27T23:10:47.567Z,74.00
2018-11-27T23:13:15.925Z,74.70
2018-11-27T23:15:44.197Z,74.60
2018-11-27T23:18:12.319Z,74.90
2018-11-27T23:20:40.614Z,74.40
2018-11-27T23:23:08.790Z,74.00
2018-11-27T23:25:37.028Z,73.30
2018-11-27T23:28:05.277Z,73.30
2018-11-27T23:30:33.487Z,73.50
2018-11-27T23:33:01.760Z,73.60
2018-11-27T23:35:30.155Z,73.60
2018-11-27T23:37:58.447Z,73.00
2018-11-27T23:40:26.696Z,74.00
2018-11-27T23:42:54.955Z,74.00
2018-11-27T23:45:23.827Z,73.90
2018-11-27T23:47:52.031Z,74.30
2018-11-27T23:50:21.152Z,74.60
2018-11-27T23:52:49.395Z,74.80
2018-11-27T23:55:18.417Z,75.10
2018-11-27T23:57:46.964Z,74.70
